Time;durP1;ratioP1;P1;durP2;ratioP2;P2;SDS_P1;SDS_P2;PMS_P1;PMS_P2;Temp;Humidity;BMP_temperature;BMP_pressure;BME280_temperature;BME280_humidity;BME280_pressure;Samples;Min_cycle;Max_cycle;Signal;HPM_P1;HPM_P2
2022/04/11 00:04:12;;;;;;;10.13;6.27;;;4.70;99.90;;;;;;10174846;29;20184;-72
2022/04/11 00:09:13;;;;;;;8.20;5.97;;;4.60;99.90;;;;;;10167726;29;20189;-74
2022/04/11 00:14:14;;;;;;;7.90;6.23;;;4.60;99.90;;;;;;10167328;29;20215;-73
2022/04/11 00:19:14;;;;;;;8.67;5.67;;;4.60;99.90;;;;;;10166823;29;20189;-73
2022/04/11 00:24:15;;;;;;;7.43;5.40;;;4.60;99.90;;;;;;10172989;29;20205;-73
2022/04/11 00:29:16;;;;;;;8.07;5.00;;;4.70;99.90;;;;;;10167408;29;20189;-74
2022/04/11 00:34:16;;;;;;;6.63;5.00;;;4.80;99.90;;;;;;10165910;29;20191;-74
2022/04/11 00:39:17;;;;;;;10.07;6.27;;;4.80;99.90;;;;;;10166756;29;20649;-74
2022/04/11 00:44:17;;;;;;;7.43;5.20;;;4.90;99.90;;;;;;10174766;29;20214;-73
2022/04/11 00:49:18;;;;;;;8.83;5.87;;;4.90;99.90;;;;;;10164096;29;20199;-72
2022/04/11 00:54:19;;;;;;;7.63;5.77;;;4.90;99.90;;;;;;10165730;29;20284;-72
2022/04/11 00:59:20;;;;;;;8.10;6.23;;;4.90;99.90;;;;;;10165370;29;20199;-72
2022/04/11 01:04:24;;;;;;;10.87;5.53;;;4.70;99.90;;;;;;10164992;29;20195;-72
2022/04/11 01:09:26;;;;;;;10.13;6.93;;;4.60;99.90;;;;;;10164805;29;20267;-72
2022/04/11 01:14:26;;;;;;;11.17;6.67;;;4.60;99.90;;;;;;10165546;29;20195;-72
2022/04/11 01:19:27;;;;;;;9.57;6.20;;;4.70;99.90;;;;;;10163575;29;20202;-72
2022/04/11 01:24:28;;;;;;;8.97;5.73;;;4.70;99.90;;;;;;10163095;29;20660;-73
2022/04/11 01:29:29;;;;;;;8.23;5.73;;;4.70;99.90;;;;;;10159275;29;20212;-72
2022/04/11 01:34:30;;;;;;;8.00;5.10;;;4.80;99.90;;;;;;10164767;29;20252;-71
2022/04/11 01:39:30;;;;;;;8.20;5.67;;;4.90;99.90;;;;;;10164661;29;20667;-72
2022/04/11 01:44:34;;;;;;;9.47;6.07;;;5.00;99.90;;;;;;10163694;29;20204;-73
2022/04/11 01:49:35;;;;;;;8.70;5.37;;;5.00;99.90;;;;;;10163133;29;20217;-73
2022/04/11 01:54:35;;;;;;;8.33;5.77;;;5.00;99.90;;;;;;10163974;29;20263;-72
2022/04/11 01:59:36;;;;;;;8.53;5.50;;;5.00;99.90;;;;;;10163387;29;20189;-74
2022/04/11 02:04:36;;;;;;;8.53;4.90;;;4.90;99.90;;;;;;10170540;29;20618;-72
2022/04/11 02:09:37;;;;;;;8.33;6.00;;;4.90;99.90;;;;;;10169983;29;20652;-72
2022/04/11 02:14:37;;;;;;;9.10;6.07;;;4.90;99.90;;;;;;10169942;29;20193;-73
2022/04/11 02:19:38;;;;;;;7.70;5.67;;;4.90;99.90;;;;;;10170271;29;20191;-72
2022/04/11 02:24:39;;;;;;;8.80;5.40;;;4.90;99.90;;;;;;10176862;29;20225;-74
2022/04/11 02:29:39;;;;;;;7.07;5.00;;;5.00;99.90;;;;;;10153409;29;20629;-74
2022/04/11 02:34:40;;;;;;;6.43;4.27;;;5.00;99.90;;;;;;10169806;29;20198;-72
2022/04/11 02:39:40;;;;;;;6.93;4.90;;;5.10;99.90;;;;;;10174979;29;20678;-73
2022/04/11 02:44:41;;;;;;;6.13;4.30;;;5.10;99.90;;;;;;10168938;29;20204;-72
2022/04/11 02:49:41;;;;;;;5.67;4.50;;;5.10;99.90;;;;;;10168213;29;20243;-73
2022/04/11 02:54:42;;;;;;;7.20;4.67;;;5.10;99.90;;;;;;10169435;29;20189;-73
2022/04/11 02:59:43;;;;;;;5.57;4.30;;;5.10;99.90;;;;;;10168964;29;20460;-72
2022/04/11 03:04:43;;;;;;;5.47;3.80;;;5.10;99.90;;;;;;10169369;29;20196;-72
2022/04/11 03:09:44;;;;;;;5.27;4.00;;;5.10;99.90;;;;;;10168965;29;20216;-73
2022/04/11 03:14:47;;;;;;;4.90;3.90;;;5.00;99.90;;;;;;10173446;29;20193;-72
2022/04/11 03:19:47;;;;;;;6.10;4.40;;;4.90;99.90;;;;;;10159031;29;20212;-73
2022/04/11 03:24:48;;;;;;;8.13;4.30;;;5.00;99.90;;;;;;10168436;29;20223;-72
2022/04/11 03:29:51;;;;;;;5.33;4.20;;;4.90;99.90;;;;;;10158964;29;20212;-72
2022/04/11 03:34:58;;;;;;;6.17;4.30;;;4.80;99.90;;;;;;10174817;29;20226;-72
2022/04/11 03:39:58;;;;;;;8.30;4.93;;;4.70;99.90;;;;;;10160261;29;20240;-72
2022/04/11 03:44:59;;;;;;;6.87;4.03;;;4.70;99.90;;;;;;10168065;29;20251;-72
2022/04/11 03:49:59;;;;;;;7.80;4.57;;;4.60;99.90;;;;;;10166904;29;20216;-73
2022/04/11 03:55:00;;;;;;;6.63;4.23;;;4.50;99.90;;;;;;10173450;29;20211;-72
2022/04/11 04:00:01;;;;;;;7.33;4.23;;;4.40;99.90;;;;;;10167756;29;20653;-73
2022/04/11 04:05:02;;;;;;;9.60;4.40;;;4.40;99.90;;;;;;10166146;28;20196;-71
2022/04/11 04:10:06;;;;;;;6.60;4.03;;;4.40;99.90;;;;;;10166732;29;20201;-72
2022/04/11 04:15:07;;;;;;;8.77;4.70;;;4.30;99.90;;;;;;10176682;29;20246;-71
2022/04/11 04:20:08;;;;;;;6.53;3.90;;;4.30;99.90;;;;;;10166487;29;20233;-73
2022/04/11 04:25:09;;;;;;;8.40;4.17;;;4.30;99.90;;;;;;10165991;29;20236;-71
2022/04/11 04:30:09;;;;;;;6.23;4.50;;;4.20;99.90;;;;;;10164901;29;20278;-72
2022/04/11 04:35:10;;;;;;;11.00;5.40;;;4.20;99.90;;;;;;10165173;29;20199;-71
2022/04/11 04:40:11;;;;;;;9.20;4.40;;;4.10;99.90;;;;;;10165574;29;20197;-72
2022/04/11 04:45:12;;;;;;;6.33;3.77;;;4.10;99.90;;;;;;10166020;29;20221;-72
2022/04/11 04:50:13;;;;;;;7.63;4.40;;;4.10;99.90;;;;;;10178288;29;20695;-74
2022/04/11 04:55:13;;;;;;;6.13;4.00;;;4.10;99.90;;;;;;10172701;29;20192;-74
2022/04/11 05:00:14;;;;;;;11.00;4.50;;;4.10;99.90;;;;;;10166165;29;20654;-74
2022/04/11 05:05:15;;;;;;;7.27;5.10;;;4.10;99.90;;;;;;10166562;29;20224;-75
2022/04/11 05:10:15;;;;;;;6.30;4.37;;;4.10;99.90;;;;;;10166694;29;20216;-75
2022/04/11 05:15:16;;;;;;;10.47;5.20;;;4.10;99.90;;;;;;10166064;29;20198;-74
2022/04/11 05:20:17;;;;;;;5.30;4.10;;;4.10;99.90;;;;;;10165564;29;20197;-73
2022/04/11 05:25:17;;;;;;;6.37;4.17;;;4.10;99.90;;;;;;10162899;29;20228;-72
2022/04/11 05:30:18;;;;;;;7.33;4.50;;;4.10;99.90;;;;;;10162963;29;20227;-73
2022/04/11 05:35:19;;;;;;;6.63;4.33;;;4.20;99.90;;;;;;10160499;29;20201;-73
2022/04/11 05:40:19;;;;;;;8.90;4.60;;;4.20;99.90;;;;;;10164480;29;20197;-72
2022/04/11 05:45:20;;;;;;;6.37;4.43;;;4.30;99.90;;;;;;10175484;29;20204;-71
2022/04/11 05:50:20;;;;;;;13.90;4.87;;;4.40;99.90;;;;;;10163672;29;20221;-72
2022/04/11 05:55:23;;;;;;;8.80;4.67;;;4.50;99.90;;;;;;10170411;29;20576;-72
2022/04/11 06:00:23;;;;;;;7.53;4.10;;;6.10;99.90;;;;;;10163142;29;20282;-74
2022/04/11 06:05:24;;;;;;;7.20;3.77;;;8.60;99.90;;;;;;10163764;29;20255;-71
2022/04/11 06:10:24;;;;;;;9.80;4.00;;;10.40;99.90;;;;;;10162923;29;20213;-69
2022/04/11 06:15:25;;;;;;;5.87;3.27;;;11.60;99.90;;;;;;10154363;29;20656;-69
2022/04/11 06:20:26;;;;;;;6.53;4.10;;;12.50;97.10;;;;;;10163325;29;20206;-69
2022/04/11 06:25:26;;;;;;;6.23;3.90;;;13.00;93.30;;;;;;10169805;29;20545;-71
2022/04/11 06:30:27;;;;;;;6.20;3.97;;;10.70;96.50;;;;;;10164657;29;20212;-69
2022/04/11 06:35:28;;;;;;;6.80;4.50;;;8.80;99.90;;;;;;10163165;29;20216;-70
2022/04/11 06:40:29;;;;;;;8.33;4.67;;;8.10;99.90;;;;;;10162702;29;20227;-70
2022/04/11 06:45:29;;;;;;;8.70;4.57;;;7.70;99.90;;;;;;10166385;29;20233;-69
2022/04/11 06:50:30;;;;;;;7.60;4.30;;;7.60;99.90;;;;;;10170805;29;20255;-69
2022/04/11 06:55:32;;;;;;;6.37;3.70;;;7.70;99.90;;;;;;10168898;29;20196;-70
2022/04/11 07:00:33;;;;;;;5.90;3.73;;;7.60;99.90;;;;;;10176489;29;20700;-69
2022/04/11 07:05:34;;;;;;;8.07;3.70;;;7.70;99.90;;;;;;10167671;29;20204;-70
2022/04/11 07:10:37;;;;;;;4.60;3.27;;;8.10;99.90;;;;;;10170179;29;20208;-71
2022/04/11 07:15:38;;;;;;;5.67;3.20;;;8.20;99.90;;;;;;10172594;29;20206;-71
2022/04/11 07:20:38;;;;;;;5.47;3.40;;;8.10;99.90;;;;;;10172126;29;20203;-70
2022/04/11 07:25:39;;;;;;;5.50;3.00;;;8.30;99.90;;;;;;10166998;29;20627;-70
2022/04/11 07:30:40;;;;;;;4.13;2.97;;;8.50;99.90;;;;;;10167576;29;20232;-70
2022/04/11 07:35:40;;;;;;;5.13;2.93;;;8.80;99.90;;;;;;10167508;29;20219;-70
2022/04/11 07:40:41;;;;;;;4.57;3.07;;;10.70;99.90;;;;;;10170354;29;20641;-71
2022/04/11 07:45:43;;;;;;;3.00;2.67;;;14.10;92.80;;;;;;10169683;29;20189;-72
2022/04/11 07:50:43;;;;;;;4.37;2.53;;;16.80;69.60;;;;;;10166664;29;20553;-72
2022/04/11 07:55:44;;;;;;;5.93;2.90;;;17.90;59.20;;;;;;10167126;29;20192;-72
2022/04/11 08:00:50;;;;;;;5.63;2.60;;;18.40;53.80;;;;;;10166228;29;20211;-71
2022/04/11 08:05:51;;;;;;;4.93;2.70;;;18.40;52.00;;;;;;10167078;29;20197;-71
2022/04/11 08:10:52;;;;;;;5.03;2.33;;;18.90;49.70;;;;;;10166534;29;20736;-71
2022/04/11 08:15:52;;;;;;;4.60;2.63;;;19.30;47.10;;;;;;10165110;29;20258;-70
2022/04/11 08:20:53;;;;;;;5.93;2.60;;;19.10;47.60;;;;;;10156842;29;20247;-71
2022/04/11 08:25:54;;;;;;;4.50;2.43;;;19.40;46.50;;;;;;10166019;29;20635;-71
2022/04/11 08:30:54;;;;;;;4.70;2.80;;;19.30;46.70;;;;;;10165912;29;20217;-71
2022/04/11 08:35:55;;;;;;;3.93;2.57;;;19.50;45.70;;;;;;10165838;29;20209;-71
2022/04/11 08:40:58;;;;;;;3.93;2.33;;;19.70;46.00;;;;;;10157339;29;20193;-72
2022/04/11 08:46:03;;;;;;;3.13;2.20;;;20.70;43.80;;;;;;10165103;29;20229;-72
2022/04/11 08:51:04;;;;;;;2.30;1.90;;;22.00;42.40;;;;;;10164677;29;20220;-72
2022/04/11 08:56:05;;;;;;;4.03;2.33;;;22.90;40.00;;;;;;10164296;29;20700;-72
2022/04/11 09:01:05;;;;;;;2.30;2.10;;;23.10;37.40;;;;;;10169910;29;20210;-71
2022/04/11 09:06:08;;;;;;;5.00;2.27;;;24.50;34.40;;;;;;10165579;29;20205;-71
2022/04/11 09:11:09;;;;;;;5.47;2.30;;;22.90;36.90;;;;;;10163538;29;20206;-71
2022/04/11 09:16:10;;;;;;;4.87;1.90;;;22.40;38.00;;;;;;10162537;29;20816;-71
2022/04/11 09:21:11;;;;;;;4.60;2.00;;;23.90;34.60;;;;;;10170966;29;20211;-71
2022/04/11 09:26:23;;;;;;;3.67;1.83;;;24.20;34.80;;;;;;10162693;29;20273;-71
2022/04/11 09:31:23;;;;;;;3.93;1.70;;;26.50;32.00;;;;;;10153844;29;20209;-71
2022/04/11 09:36:44;;;;;;;1.90;1.70;;;26.30;29.00;;;;;;10163628;29;20197;-71
2022/04/11 09:41:46;;;;;;;3.47;1.60;;;27.00;29.40;;;;;;10163195;29;20196;-71
2022/04/11 09:46:46;;;;;;;2.97;1.77;;;28.20;27.40;;;;;;10164010;29;20181;-71
2022/04/11 09:52:11;;;;;;;3.10;1.53;;;29.00;26.50;;;;;;10162629;29;20211;-71
2022/04/11 09:57:14;;;;;;;3.47;1.70;;;28.30;26.50;;;;;;10158072;29;20192;-71
2022/04/11 10:02:17;;;;;;;2.80;1.60;;;28.10;25.50;;;;;;10162053;29;20196;-72
2022/04/11 10:07:18;;;;;;;4.20;1.17;;;29.60;25.70;;;;;;10162388;29;20227;-71
2022/04/11 10:12:19;;;;;;;1.63;1.20;;;32.20;23.80;;;;;;10162357;29;20253;-71
2022/04/11 10:17:22;;;;;;;3.07;1.60;;;34.40;22.20;;;;;;10163006;29;20301;-71
2022/04/11 10:22:27;;;;;;;3.10;1.20;;;34.60;21.40;;;;;;10167915;29;20202;-71
2022/04/11 10:27:29;;;;;;;1.80;1.27;;;32.80;22.20;;;;;;10168664;29;20257;-70
2022/04/11 10:32:30;;;;;;;2.60;1.50;;;33.10;22.20;;;;;;10176292;29;20264;-70
2022/04/11 10:37:40;;;;;;;3.40;1.37;;;30.90;22.30;;;;;;10169073;29;20250;-72
2022/04/11 10:43:01;;;;;;;2.83;1.43;;;29.60;24.80;;;;;;10166877;29;20189;-71
2022/04/11 10:48:03;;;;;;;4.07;2.10;;;29.40;24.20;;;;;;10161384;28;20199;-71
2022/04/11 10:53:23;;;;;;;2.77;1.70;;;28.20;24.00;;;;;;10167001;29;20208;-71
2022/04/11 10:58:51;;;;;;;2.80;1.53;;;28.10;25.00;;;;;;10175848;29;20244;-70
2022/04/11 11:03:59;;;;;;;2.83;1.30;;;30.70;23.40;;;;;;10167228;29;20247;-72
2022/04/11 11:09:14;;;;;;;2.83;1.27;;;31.10;23.00;;;;;;10158887;29;20815;-71
2022/04/11 11:14:41;;;;;;;2.70;1.33;;;28.70;24.20;;;;;;10167460;29;20214;-70
2022/04/11 11:20:02;;;;;;;2.20;1.40;;;24.30;28.40;;;;;;10167477;29;20192;-71
2022/04/11 11:25:18;;;;;;;2.33;1.20;;;22.10;32.20;;;;;;10159045;29;20211;-70
2022/04/11 11:30:19;;;;;;;4.60;1.33;;;21.20;34.00;;;;;;10165774;29;20207;-71
2022/04/11 11:35:19;;;;;;;2.33;1.30;;;19.60;35.30;;;;;;10167090;29;20194;-71
2022/04/11 11:40:20;;;;;;;1.77;1.13;;;18.90;37.20;;;;;;10165745;29;20192;-72
2022/04/11 11:45:27;;;;;;;2.40;1.30;;;19.00;38.20;;;;;;10167599;29;20975;-70
2022/04/11 11:50:29;;;;;;;2.97;1.40;;;19.00;37.90;;;;;;10166902;29;20225;-70
2022/04/11 11:55:29;;;;;;;1.37;0.83;;;18.60;38.00;;;;;;10168749;29;20238;-71
2022/04/11 12:00:34;;;;;;;5.80;1.50;;;18.40;38.80;;;;;;10173574;29;20189;-70
2022/04/11 12:05:35;;;;;;;2.40;1.27;;;18.20;39.20;;;;;;10166343;29;20546;-70
2022/04/11 12:10:36;;;;;;;3.00;1.37;;;17.90;39.60;;;;;;10165643;29;20219;-71
2022/04/11 12:15:37;;;;;;;3.40;1.20;;;17.40;42.10;;;;;;10166406;29;20189;-70
2022/04/11 12:20:37;;;;;;;3.30;1.40;;;17.30;42.70;;;;;;10165782;29;20189;-70
2022/04/11 12:25:40;;;;;;;2.63;1.37;;;16.70;42.90;;;;;;10165954;29;20204;-70
2022/04/11 12:30:46;;;;;;;4.53;1.50;;;16.90;43.90;;;;;;10165278;29;20205;-70
2022/04/11 12:36:13;;;;;;;3.37;1.37;;;17.00;43.70;;;;;;10172128;29;20189;-71
2022/04/11 12:41:29;;;;;;;2.90;1.57;;;16.40;43.30;;;;;;10160033;29;20250;-70
2022/04/11 12:46:30;;;;;;;2.80;1.40;;;16.30;43.20;;;;;;10164821;29;20188;-71
2022/04/11 12:51:31;;;;;;;2.13;1.17;;;16.60;44.10;;;;;;10165529;29;20244;-71
2022/04/11 12:56:36;;;;;;;2.37;1.30;;;16.40;43.60;;;;;;10164982;29;20189;-71
2022/04/11 13:02:03;;;;;;;2.23;1.10;;;16.40;43.80;;;;;;10171288;29;20189;-70
2022/04/11 13:07:04;;;;;;;3.73;1.47;;;16.50;44.30;;;;;;10157043;29;20279;-70
2022/04/11 13:12:09;;;;;;;2.30;1.20;;;16.40;43.70;;;;;;10165831;29;20635;-70
2022/04/11 13:22:34;;;;;;;4.23;1.53;;;16.20;44.30;;;;;;10165213;29;20200;-69
2022/04/11 13:27:34;;;;;;;4.00;1.40;;;16.10;44.40;;;;;;10164525;29;20217;-70
2022/04/11 13:32:35;;;;;;;3.20;1.70;;;16.10;44.30;;;;;;10162773;29;20595;-70
2022/04/11 13:37:37;;;;;;;2.27;1.53;;;16.00;45.00;;;;;;10164572;29;20191;-70
2022/04/11 13:42:37;;;;;;;1.77;1.10;;;16.10;44.80;;;;;;10164022;29;20624;-70
2022/04/11 13:47:38;;;;;;;3.37;1.30;;;16.00;44.70;;;;;;10158143;29;20243;-70
2022/04/11 13:52:42;;;;;;;2.80;1.30;;;16.10;45.60;;;;;;10167878;29;20307;-69
2022/04/11 13:57:42;;;;;;;3.00;1.70;;;16.10;45.50;;;;;;10178019;29;20192;-70
2022/04/11 14:02:43;;;;;;;4.23;1.70;;;16.10;45.90;;;;;;10176519;29;20197;-70
2022/04/11 14:07:43;;;;;;;3.63;1.77;;;16.20;44.90;;;;;;10173037;29;20204;-70
2022/04/11 14:12:44;;;;;;;1.30;1.20;;;16.10;45.50;;;;;;10173133;29;20258;-71
2022/04/11 14:17:44;;;;;;;2.47;1.53;;;16.10;45.90;;;;;;10170889;29;20196;-71
2022/04/11 14:22:45;;;;;;;3.70;1.40;;;16.20;45.40;;;;;;10169292;29;20275;-70
2022/04/11 14:27:46;;;;;;;3.43;1.37;;;16.10;45.20;;;;;;10169221;29;20205;-70
2022/04/11 14:32:46;;;;;;;4.00;2.60;;;16.10;46.10;;;;;;10169481;29;20575;-70
2022/04/11 14:37:49;;;;;;;2.37;1.53;;;16.20;46.20;;;;;;10175738;29;20291;-70
2022/04/11 14:42:51;;;;;;;3.87;1.67;;;16.30;45.80;;;;;;10168781;29;20181;-69
2022/04/11 14:47:52;;;;;;;2.07;1.40;;;16.10;45.70;;;;;;10175498;29;20503;-71
2022/04/11 14:52:52;;;;;;;3.90;1.97;;;16.30;46.70;;;;;;10168157;29;20208;-70
2022/04/11 14:57:53;;;;;;;4.10;1.67;;;16.10;46.10;;;;;;10169489;29;20244;-71
2022/04/11 15:02:54;;;;;;;4.17;1.40;;;16.20;47.40;;;;;;10168339;29;20208;-70
2022/04/11 15:07:54;;;;;;;3.50;1.70;;;16.20;46.60;;;;;;10168792;29;20660;-70
2022/04/11 15:12:55;;;;;;;3.27;1.57;;;16.30;47.40;;;;;;10167786;29;20221;-71
2022/04/11 15:17:56;;;;;;;4.30;1.90;;;16.40;45.40;;;;;;10167769;29;20203;-69
2022/04/11 15:22:57;;;;;;;2.87;1.50;;;16.20;45.90;;;;;;10168621;29;20684;-71
2022/04/11 15:27:57;;;;;;;3.70;1.60;;;16.20;46.90;;;;;;10159826;29;20384;-70
2022/04/11 15:32:58;;;;;;;3.53;1.60;;;16.10;46.70;;;;;;10174401;29;20304;-71
2022/04/11 15:37:58;;;;;;;3.07;1.53;;;16.00;47.00;;;;;;10168114;29;20501;-70
2022/04/11 15:42:59;;;;;;;4.23;1.70;;;16.20;46.40;;;;;;10174053;29;20220;-71
2022/04/11 15:48:00;;;;;;;5.13;1.60;;;16.10;46.60;;;;;;10166266;29;20196;-71
2022/04/11 15:53:00;;;;;;;3.53;1.67;;;16.10;45.80;;;;;;10167074;29;20217;-71
2022/04/11 15:58:01;;;;;;;2.77;1.30;;;16.00;46.60;;;;;;10167433;29;20188;-71
2022/04/11 16:03:01;;;;;;;2.47;1.80;;;16.00;47.50;;;;;;10166275;29;20662;-70
2022/04/11 16:08:02;;;;;;;3.90;1.80;;;16.10;46.80;;;;;;10166637;29;20201;-71
2022/04/11 16:13:03;;;;;;;3.13;1.33;;;15.90;46.90;;;;;;10164422;29;20358;-70
2022/04/11 16:18:04;;;;;;;2.40;1.60;;;15.80;47.00;;;;;;10166980;29;20217;-70
2022/04/11 16:23:05;;;;;;;3.57;1.73;;;15.80;47.70;;;;;;10166686;29;20272;-70
2022/04/11 16:28:07;;;;;;;4.53;1.80;;;15.80;47.60;;;;;;10166987;29;20296;-71
2022/04/11 16:33:07;;;;;;;2.27;1.47;;;15.70;48.00;;;;;;10172872;29;20745;-71
2022/04/11 16:38:08;;;;;;;2.17;1.30;;;15.60;48.10;;;;;;10166355;29;20173;-71
2022/04/11 16:43:09;;;;;;;2.83;1.60;;;15.50;47.90;;;;;;10166229;29;20648;-70
2022/04/11 16:48:09;;;;;;;3.17;1.87;;;15.50;47.90;;;;;;10165861;29;20280;-70
2022/04/11 16:53:10;;;;;;;3.83;1.97;;;15.40;48.80;;;;;;10165477;29;20239;-71
2022/04/11 16:58:11;;;;;;;1.80;1.70;;;15.30;49.00;;;;;;10164726;29;20594;-70
2022/04/11 17:03:11;;;;;;;3.27;2.13;;;15.30;49.20;;;;;;10164353;29;20181;-70
2022/04/11 17:08:12;;;;;;;4.33;2.10;;;15.20;49.60;;;;;;10165021;29;20275;-70
2022/04/11 17:13:13;;;;;;;4.33;2.30;;;15.20;49.70;;;;;;10164887;29;20274;-69
2022/04/11 17:18:32;;;;;;;4.40;1.97;;;15.10;49.90;;;;;;10164418;29;20250;-70
2022/04/11 17:23:34;;;;;;;4.30;2.47;;;15.00;50.50;;;;;;10164611;29;20721;-70
2022/04/11 17:28:37;;;;;;;7.57;2.90;;;15.00;50.80;;;;;;10163738;29;20200;-71
2022/04/11 17:33:37;;;;;;;6.10;2.77;;;14.90;50.80;;;;;;10156131;29;20220;-70
2022/04/11 17:38:38;;;;;;;4.00;2.57;;;14.80;51.20;;;;;;10164355;29;20192;-71
2022/04/11 17:43:39;;;;;;;2.90;2.30;;;14.80;51.10;;;;;;10163756;29;20187;-71
2022/04/11 17:48:41;;;;;;;3.70;2.50;;;14.70;51.60;;;;;;10164392;29;20192;-70
2022/04/11 17:53:42;;;;;;;4.10;2.83;;;14.60;52.00;;;;;;10163865;29;20247;-70
2022/04/11 17:58:42;;;;;;;5.33;2.90;;;14.50;53.90;;;;;;10162383;29;20691;-70
2022/04/11 18:03:43;;;;;;;7.07;3.20;;;14.30;54.90;;;;;;10164232;29;20231;-71
2022/04/11 18:08:44;;;;;;;5.10;3.10;;;14.10;55.80;;;;;;10163653;29;20193;-71
2022/04/11 18:13:44;;;;;;;5.03;3.43;;;14.00;56.50;;;;;;10146700;29;20216;-71
2022/04/11 18:18:45;;;;;;;7.67;3.93;;;13.90;57.00;;;;;;10170178;29;20205;-71
2022/04/11 18:23:46;;;;;;;5.27;3.97;;;13.80;57.50;;;;;;10161906;29;20919;-70
2022/04/11 18:34:07;;;;;;;5.20;3.77;;;13.50;58.50;;;;;;10156653;29;20280;-71
2022/04/11 18:39:14;;;;;;;4.80;3.50;;;13.40;58.80;;;;;;10170402;29;20239;-72
2022/04/11 18:44:14;;;;;;;5.50;3.33;;;13.30;59.10;;;;;;10160318;29;20193;-72
2022/04/11 18:49:16;;;;;;;7.43;3.30;;;13.20;59.80;;;;;;10169585;29;20585;-73
2022/04/11 18:54:17;;;;;;;6.53;3.23;;;13.00;61.00;;;;;;10170432;29;20217;-73
2022/04/11 18:59:17;;;;;;;6.30;3.70;;;13.00;60.90;;;;;;10169451;29;20644;-73
2022/04/11 19:04:23;;;;;;;4.87;3.80;;;12.90;61.60;;;;;;10165145;29;20193;-72
2022/04/11 19:09:24;;;;;;;5.27;3.63;;;12.70;62.50;;;;;;10169157;29;20197;-72
2022/04/11 19:14:24;;;;;;;5.83;3.47;;;12.60;63.70;;;;;;10169614;29;20217;-72
2022/04/11 19:19:25;;;;;;;8.20;4.30;;;12.60;64.00;;;;;;10169526;29;20596;-71
2022/04/11 19:24:29;;;;;;;5.53;4.20;;;12.50;65.20;;;;;;10169854;29;20212;-73
2022/04/11 19:29:30;;;;;;;5.90;4.07;;;12.50;64.80;;;;;;10170715;29;20202;-72
2022/04/11 19:34:31;;;;;;;8.27;4.43;;;12.40;65.00;;;;;;10144921;29;20228;-70
2022/04/11 19:39:32;;;;;;;5.73;4.30;;;12.30;65.50;;;;;;10171319;29;20227;-73
2022/04/11 19:44:34;;;;;;;7.13;4.70;;;12.30;65.80;;;;;;10170703;29;20234;-73
2022/04/11 19:49:55;;;;;;;6.23;4.47;;;12.20;66.80;;;;;;10167822;29;20216;-73
2022/04/11 19:54:59;;;;;;;6.47;4.20;;;12.10;66.60;;;;;;10167373;29;20236;-73
2022/04/11 20:00:00;;;;;;;6.50;4.27;;;12.00;66.90;;;;;;10153990;28;20200;-71
2022/04/11 20:05:02;;;;;;;5.70;4.20;;;11.90;67.90;;;;;;10167941;29;20220;-71
2022/04/11 20:10:03;;;;;;;6.20;4.30;;;11.90;67.90;;;;;;10165767;28;20264;-71
2022/04/11 20:15:06;;;;;;;6.30;4.33;;;11.80;68.20;;;;;;10167757;29;20343;-70
2022/04/11 20:20:08;;;;;;;6.57;4.03;;;11.80;68.20;;;;;;10166744;29;20217;-72
2022/04/11 20:25:12;;;;;;;5.03;3.77;;;11.80;68.00;;;;;;10176661;28;20204;-72
2022/04/11 20:30:15;;;;;;;4.27;3.77;;;11.80;67.50;;;;;;10179945;28;20216;-73
2022/04/11 20:35:16;;;;;;;6.53;4.07;;;11.80;66.90;;;;;;10173301;28;20268;-71
2022/04/11 20:40:16;;;;;;;6.37;3.70;;;11.80;67.00;;;;;;10166750;29;20268;-71
2022/04/11 20:45:17;;;;;;;3.83;3.43;;;11.70;67.10;;;;;;10166419;29;20226;-72
2022/04/11 20:50:18;;;;;;;4.10;3.53;;;11.60;67.40;;;;;;10167210;29;20209;-72
2022/04/11 21:00:40;;;;;;;5.87;3.90;;;11.40;67.30;;;;;;10166285;29;20200;-70
2022/04/11 21:05:41;;;;;;;5.23;3.83;;;11.40;67.40;;;;;;10165893;29;20189;-70
2022/04/11 21:10:43;;;;;;;6.10;3.90;;;11.50;67.00;;;;;;10165510;29;20221;-70
2022/04/11 21:15:44;;;;;;;5.33;3.93;;;11.50;66.50;;;;;;10166024;29;20280;-70
2022/04/11 21:20:44;;;;;;;6.63;3.80;;;11.50;66.40;;;;;;10172881;29;20199;-70
2022/04/11 21:25:45;;;;;;;5.07;4.10;;;11.50;66.20;;;;;;10165983;29;20578;-70
2022/04/11 21:30:46;;;;;;;6.60;4.07;;;11.50;66.40;;;;;;10164928;29;20212;-70
2022/04/11 21:35:46;;;;;;;6.33;4.40;;;11.50;66.30;;;;;;10164967;29;20712;-70
2022/04/11 21:40:47;;;;;;;7.50;4.17;;;11.50;66.40;;;;;;10171643;29;20656;-70
2022/04/11 21:45:48;;;;;;;5.63;4.23;;;11.50;66.40;;;;;;10165774;29;20184;-70
2022/04/11 21:50:48;;;;;;;5.73;4.20;;;11.50;66.20;;;;;;10165159;29;20209;-71
2022/04/11 21:55:49;;;;;;;5.03;3.97;;;11.40;66.80;;;;;;10171012;29;20272;-69
2022/04/11 22:00:54;;;;;;;5.13;3.83;;;11.40;67.00;;;;;;10164392;29;20197;-68
2022/04/11 22:05:55;;;;;;;5.70;3.87;;;11.30;67.10;;;;;;10164507;29;20801;-70
2022/04/11 22:10:56;;;;;;;6.50;4.20;;;11.10;67.70;;;;;;10164333;29;20212;-70
2022/04/11 22:15:56;;;;;;;6.67;4.07;;;11.10;68.00;;;;;;10165554;29;20333;-69
2022/04/11 22:20:57;;;;;;;6.43;4.30;;;11.00;68.80;;;;;;10171457;29;20193;-69
2022/04/11 22:25:57;;;;;;;5.57;3.97;;;11.00;69.00;;;;;;10168959;29;20217;-68
2022/04/11 22:30:59;;;;;;;7.70;3.60;;;10.90;69.30;;;;;;10162958;28;20221;-71
2022/04/11 22:36:00;;;;;;;5.37;3.83;;;10.90;69.50;;;;;;10177359;29;20193;-72
2022/04/11 22:41:01;;;;;;;5.80;3.93;;;10.80;70.80;;;;;;10170444;29;20262;-68
2022/04/11 22:46:02;;;;;;;5.43;3.97;;;10.60;72.20;;;;;;10169060;29;20555;-68
2022/04/11 22:51:03;;;;;;;5.00;3.97;;;10.60;73.70;;;;;;10167999;29;20228;-69
2022/04/11 22:56:03;;;;;;;11.17;5.20;;;10.60;74.00;;;;;;10169741;29;20192;-69
2022/04/11 23:01:05;;;;;;;6.43;4.50;;;10.50;74.20;;;;;;10169081;29;20192;-69
2022/04/11 23:06:06;;;;;;;5.50;4.70;;;10.50;74.50;;;;;;10168089;29;20212;-69
2022/04/11 23:11:06;;;;;;;7.60;5.13;;;10.50;74.90;;;;;;10168752;29;20229;-69
2022/04/11 23:16:07;;;;;;;6.67;4.70;;;10.40;75.70;;;;;;10167112;29;20529;-71
2022/04/11 23:21:08;;;;;;;9.47;5.07;;;10.30;76.40;;;;;;10170956;29;20282;-70
2022/04/11 23:26:08;;;;;;;8.70;5.27;;;10.20;77.10;;;;;;10166781;29;20249;-69
2022/04/11 23:31:09;;;;;;;7.30;4.83;;;10.10;77.90;;;;;;10169530;28;20248;-70
2022/04/11 23:36:11;;;;;;;6.10;4.50;;;10.10;78.40;;;;;;10167791;28;20882;-72
2022/04/11 23:41:12;;;;;;;9.57;5.43;;;10.00;79.00;;;;;;10167405;28;20243;-72
2022/04/11 23:46:13;;;;;;;7.80;5.43;;;9.90;79.30;;;;;;10174717;28;20631;-72
2022/04/11 23:51:14;;;;;;;7.33;4.93;;;9.90;79.60;;;;;;10158192;29;20258;-72
2022/04/11 23:56:15;;;;;;;6.37;4.47;;;9.90;79.80;;;;;;10167631;29;20757;-72
